地図

経路データ

SID SEASON NUMBER BASIN SUBBASIN NAME ISO_TIME NATURE LAT LON WMO_WIND WMO_PRES WMO_AGENCY TRACK_TYPE DIST2LAND LANDFALL IFLAG USA_AGENCY USA_ATCF_ID USA_LAT USA_LON USA_RECORD USA_STATUS USA_WIND USA_PRES USA_SSHS USA_R34_NE USA_R34_SE USA_R34_SW USA_R34_NW USA_R50_NE USA_R50_SE USA_R50_SW USA_R50_NW USA_R64_NE USA_R64_SE USA_R64_SW USA_R64_NW USA_POCI USA_ROCI USA_RMW USA_EYE TOKYO_LAT TOKYO_LON TOKYO_GRADE TOKYO_WIND TOKYO_PRES TOKYO_R50_DIR TOKYO_R50_LONG TOKYO_R50_SHORT TOKYO_R30_DIR TOKYO_R30_LONG TOKYO_R30_SHORT TOKYO_LAND CMA_LAT CMA_LON CMA_CAT CMA_WIND CMA_PRES HKO_LAT HKO_LON HKO_CAT HKO_WIND HKO_PRES NEWDELHI_LAT NEWDELHI_LON NEWDELHI_GRADE NEWDELHI_WIND NEWDELHI_PRES NEWDELHI_CI NEWDELHI_DP NEWDELHI_POCI REUNION_LAT REUNION_LON REUNION_TYPE REUNION_WIND REUNION_PRES REUNION_TNUM REUNION_CI REUNION_RMW REUNION_R34_NE REUNION_R34_SE REUNION_R34_SW REUNION_R34_NW REUNION_R50_NE REUNION_R50_SE REUNION_R50_SW REUNION_R50_NW REUNION_R64_NE REUNION_R64_SE REUNION_R64_SW REUNION_R64_NW BOM_LAT BOM_LON BOM_TYPE BOM_WIND BOM_PRES BOM_TNUM BOM_CI BOM_RMW BOM_R34_NE BOM_R34_SE BOM_R34_SW BOM_R34_NW BOM_R50_NE BOM_R50_SE BOM_R50_SW BOM_R50_NW BOM_R64_NE BOM_R64_SE BOM_R64_SW BOM_R64_NW BOM_ROCI BOM_POCI BOM_EYE BOM_POS_METHOD BOM_PRES_METHOD NADI_LAT NADI_LON NADI_CAT NADI_WIND NADI_PRES WELLINGTON_LAT WELLINGTON_LON WELLINGTON_WIND WELLINGTON_PRES DS824_LAT DS824_LON DS824_STAGE DS824_WIND DS824_PRES TD9636_LAT TD9636_LON TD9636_STAGE TD9636_WIND TD9636_PRES TD9635_LAT TD9635_LON TD9635_WIND TD9635_PRES TD9635_ROCI NEUMANN_LAT NEUMANN_LON NEUMANN_CLASS NEUMANN_WIND NEUMANN_PRES MLC_LAT MLC_LON MLC_CLASS MLC_WIND MLC_PRES USA_GUST BOM_GUST BOM_GUST_PER REUNION_GUST REUNION_GUST_PER USA_SEAHGT USA_SEARAD_NE USA_SEARAD_SE USA_SEARAD_SW USA_SEARAD_NW STORM_SPEED STORM_DIR
1887329N09128 1887 73 WP MM NOT_NAMED 1887-11-24 16:00:00 NR 8.60000 127.600 main 136 136 __________O___ -1 8.60000 127.600 3 0 0
1887329N09128 1887 73 WP MM NOT_NAMED 1887-11-24 18:00:00 NR 8.59647 127.603 main 136 136 __________P___ -1 8.59647 127.603 3 0 0
1887329N09128 1887 73 WP MM NOT_NAMED 1887-11-24 21:00:00 NR 8.60501 127.582 main 136 125 __________P___ -1 8.60501 127.582 3 1 295
1887329N09128 1887 73 WP MM NOT_NAMED 1887-11-25 00:00:00 NR 8.64911 127.494 main 125 108 __________P___ -1 8.64911 127.494 3 3 297
1887329N09128 1887 73 WP MM NOT_NAMED 1887-11-25 03:00:00 NR 8.75006 127.297 main 109 98 __________P___ -1 8.75006 127.297 3 5 297
1887329N09128 1887 73 WP MM NOT_NAMED 1887-11-25 04:00:00 NR 8.80000 127.200 main 98 77 __________O___ -1 8.80000 127.200 7 8 298
1887329N09128 1887 73 WP MM NOT_NAMED 1887-11-25 06:00:00 NR 8.92686 126.955 main 77 32 __________P___ -1 8.92686 126.955 7 10 298
1887329N09128 1887 73 WP MM NOT_NAMED 1887-11-25 09:00:00 NR 9.17370 126.480 main 32 0 __________P___ -1 9.17370 126.480 7 12 298
1887329N09128 1887 73 WP MM NOT_NAMED 1887-11-25 12:00:00 NR 9.46887 125.916 main 0 0 __________P___ -1 9.46887 125.916 7 13 298
1887329N09128 1887 73 WP MM NOT_NAMED 1887-11-25 15:00:00 NR 9.79058 125.306 main 15 15 __________P___ -1 9.79058 125.306 7 14 298
1887329N09128 1887 73 WP MM NOT_NAMED 1887-11-25 16:00:00 NR 9.90000 125.100 main 15 0 __________O___ -1 9.90000 125.100 7 14 299
1887329N09128 1887 73 WP MM NOT_NAMED 1887-11-25 18:00:00 NR 10.1263 124.702 main 15 10 __________P___ -1 10.1263 124.702 7 14 300
1887329N09128 1887 73 WP MM NOT_NAMED 1887-11-25 21:00:00 NR 10.4789 124.085 main 10 0 __________P___ -1 10.4789 124.085 7 14 300
1887329N09128 1887 73 WP MM NOT_NAMED 1887-11-26 00:00:00 NR 10.8192 123.470 main 0 0 __________P___ -1 10.8192 123.470 7 13 298
1887329N09128 1887 73 WP MM NOT_NAMED 1887-11-26 03:00:00 NR 11.1161 122.884 main 0 0 __________P___ -1 11.1161 122.884 7 13 297
1887329N09128 1887 73 WP MM NOT_NAMED 1887-11-26 04:00:00 NR 11.2000 122.700 main 0 0 __________O___ -1 11.2000 122.700 7 11 292
1887329N09128 1887 73 WP MM NOT_NAMED 1887-11-26 06:00:00 NR 11.3154 122.370 main 0 0 __________P___ -1 11.3154 122.370 7 10 287
1887329N09128 1887 73 WP MM NOT_NAMED 1887-11-26 09:00:00 NR 11.4381 121.914 main 21 21 __________P___ -1 11.4381 121.914 7 9 284
1887329N09128 1887 73 WP MM NOT_NAMED 1887-11-26 12:00:00 NR 11.5365 121.482 main 46 46 __________P___ -1 11.5365 121.482 7 9 284
1887329N09128 1887 73 WP MM NOT_NAMED 1887-11-26 15:00:00 NR 11.6512 121.049 main 57 57 __________P___ -1 11.6512 121.049 7 9 286
1887329N09128 1887 73 WP MM NOT_NAMED 1887-11-26 16:00:00 NR 11.7000 120.900 main 60 55 __________O___ -1 11.7000 120.900 4 10 291
1887329N09128 1887 73 WP MM NOT_NAMED 1887-11-26 18:00:00 NR 11.8383 120.555 main 70 73 __________P___ -1 11.8383 120.555 4 11 294
1887329N09128 1887 73 WP MM NOT_NAMED 1887-11-26 21:00:00 NR 12.0772 120.024 main 99 95 __________P___ -1 12.0772 120.024 4 11 296
1887329N09128 1887 73 WP MM NOT_NAMED 1887-11-27 00:00:00 NR 12.3399 119.507 main 111 123 __________P___ -1 12.3399 119.507 4 11 299
1887329N09128 1887 73 WP MM NOT_NAMED 1887-11-27 03:00:00 NR 12.6106 119.039 main 155 155 __________P___ -1 12.6106 119.039 4 10 301
1887329N09128 1887 73 WP MM NOT_NAMED 1887-11-27 04:00:00 NR 12.7000 118.900 main 169 169 __________O___ -1 12.7000 118.900 4 9 304
1887329N09128 1887 73 WP MM NOT_NAMED 1887-11-27 06:00:00 NR 12.8584 118.662 main 182 192 __________P___ -1 12.8584 118.662 4 8 307
1887329N09128 1887 73 WP MM NOT_NAMED 1887-11-27 09:00:00 NR 13.0962 118.363 main 208 217 __________P___ -1 13.0962 118.363 4 7 312
1887329N09128 1887 73 WP MM NOT_NAMED 1887-11-27 12:00:00 NR 13.3425 118.109 main 238 238 __________P___ -1 13.3425 118.109 4 7 317
1887329N09128 1887 73 WP MM NOT_NAMED 1887-11-27 15:00:00 NR 13.6065 117.877 main 260 260 __________P___ -1 13.6065 117.877 4 7 320
1887329N09128 1887 73 WP MM NOT_NAMED 1887-11-27 16:00:00 NR 13.7000 117.800 main 272 272 __________O___ -1 13.7000 117.800 4 8 319
1887329N09128 1887 73 WP MM NOT_NAMED 1887-11-27 18:00:00 NR 13.8969 117.617 main 287 283 __________P___ -1 13.8969 117.617 4 8 319
1887329N09128 1887 73 WP MM NOT_NAMED 1887-11-27 21:00:00 NR 14.2112 117.349 main 308 305 __________P___ -1 14.2112 117.349 4 8 322
1887329N09128 1887 73 WP MM NOT_NAMED 1887-11-28 00:00:00 NR 14.5425 117.096 main 317 313 __________P___ -1 14.5425 117.096 4 8 325
1887329N09128 1887 73 WP MM NOT_NAMED 1887-11-28 03:00:00 NR 14.8846 116.869 main 324 324 __________P___ -1 14.8846 116.869 4 8 328
1887329N09128 1887 73 WP MM NOT_NAMED 1887-11-28 04:00:00 NR 15.0000 116.800 main 330 326 __________O___ -1 15.0000 116.800 4 8 331
1887329N09128 1887 73 WP MM NOT_NAMED 1887-11-28 06:00:00 NR 15.2223 116.677 main 333 330 __________P___ -1 15.2223 116.677 4 8 334
1887329N09128 1887 73 WP MM NOT_NAMED 1887-11-28 09:00:00 NR 15.5620 116.518 main 345 344 __________P___ -1 15.5620 116.518 4 8 337
1887329N09128 1887 73 WP MM NOT_NAMED 1887-11-28 12:00:00 NR 15.9120 116.378 main 353 352 __________P___ -1 15.9120 116.378 4 8 340
1887329N09128 1887 73 WP MM NOT_NAMED 1887-11-28 15:00:00 NR 16.2754 116.245 main 375 375 __________P___ -1 16.2754 116.245 4 8 341
1887329N09128 1887 73 WP MM NOT_NAMED 1887-11-28 16:00:00 NR 16.4000 116.200 main 376 376 __________O___ -1 16.4000 116.200 4 8 341
1887329N09128 1887 73 WP MM NOT_NAMED 1887-11-28 18:00:00 NR 16.6549 116.107 main 392 392 __________P___ -1 16.6549 116.107 4 8 340
1887329N09128 1887 73 WP MM NOT_NAMED 1887-11-28 21:00:00 NR 17.0489 115.961 main 410 413 __________P___ -1 17.0489 115.961 4 9 340
1887329N09128 1887 73 WP MM NOT_NAMED 1887-11-29 00:00:00 NR 17.4530 115.809 main 446 446 __________P___ -1 17.4530 115.809 4 9 340
1887329N09128 1887 73 WP MM NOT_NAMED 1887-11-29 03:00:00 NR 17.8629 115.652 main 471 481 __________P___ -1 17.8629 115.652 4 9 340
1887329N09128 1887 73 WP MM NOT_NAMED 1887-11-29 04:00:00 NR 18.0000 115.600 main 485 __________O___ -1 18.0000 115.600 7 9 338

デジタル台風データ・検索

IBTrACS Databaseについて

本データベースは、米国NOAAが公開する1842年以降の世界の熱帯低気圧のベストトラックデータアーカイブInternational Best Track Archive for Climate Stewardship (IBTrACS)を、ウェブで閲覧しやすい形式に変換したものです。

最終更新日:2021-11-26